Time;durP1;ratioP1;P1;durP2;ratioP2;P2;SDS_P1;SDS_P2;PMS_P1;PMS_P2;Temp;Humidity;BMP_temperature;BMP_pressure;BME280_temperature;BME280_humidity;BME280_pressure;Samples;Min_cycle;Max_cycle;Signal;HPM_P1;HPM_P2
2023/01/09 00:01:35;;;;;;;3.60;3.22;;;9.90;99.90;;;8.78;100.00;98772.19;4962805;28;20050;-79
2023/01/09 00:04:03;;;;;;;4.07;3.63;;;9.70;99.90;;;8.67;100.00;98764.78;4979330;28;20046;-79
2023/01/09 00:06:30;;;;;;;4.50;3.30;;;9.70;99.90;;;8.57;100.00;98763.44;4978587;28;20042;-79
2023/01/09 00:08:57;;;;;;;4.22;3.83;;;9.70;99.90;;;8.65;100.00;98761.34;4994240;28;20078;-79
2023/01/09 00:11:24;;;;;;;4.38;3.53;;;9.70;99.90;;;8.65;100.00;98756.09;4979168;28;20057;-78
2023/01/09 00:13:54;;;;;;;;;;;10.00;99.90;;;8.57;100.00;98750.34;4979822;28;20357;-80
2023/01/09 00:16:22;;;;;;;5.05;3.40;;;9.60;99.90;;;8.55;100.00;98757.41;4980974;28;19926;-80
2023/01/09 00:18:49;;;;;;;4.85;3.55;;;9.60;99.90;;;8.56;100.00;98759.13;4981062;28;20134;-80
2023/01/09 00:21:16;;;;;;;4.88;4.05;;;9.60;99.90;;;8.54;100.00;98761.78;4981642;28;20105;-80
2023/01/09 00:23:45;;;;;;;6.88;4.18;;;9.60;99.90;;;8.55;100.00;98754.78;4979796;28;20104;-80
2023/01/09 00:26:18;;;;;;;4.65;3.95;;;9.90;99.90;;;8.52;100.00;98761.00;4967684;28;20486;-80
2023/01/09 00:28:47;;;;;;;4.45;3.85;;;9.60;99.90;;;8.59;100.00;98740.63;4981591;28;20244;-81
2023/01/09 00:31:16;;;;;;;4.80;3.75;;;9.60;99.90;;;8.60;100.00;98743.22;4980968;28;20046;-80
2023/01/09 00:33:59;;;;;;;4.30;3.45;;;9.70;99.90;;;8.75;100.00;98743.47;4966021;28;20062;-78
2023/01/09 00:36:28;;;;;;;3.38;2.88;;;9.70;99.90;;;8.82;100.00;98746.66;4998619;28;20050;-79
2023/01/09 00:38:56;;;;;;;4.82;3.45;;;9.70;99.90;;;8.73;100.00;98746.16;4999463;28;20053;-80
2023/01/09 00:41:43;;;;;;;3.03;2.72;;;9.70;99.90;;;8.73;100.00;98735.66;4997982;28;20479;-79
2023/01/09 00:44:29;;;;;;;3.38;2.60;;;9.70;99.90;;;8.79;100.00;98745.88;4982068;28;20502;-80
2023/01/09 00:47:06;;;;;;;3.38;2.72;;;9.80;99.90;;;8.82;100.00;98742.28;4980834;28;20061;-80
2023/01/09 00:49:36;;;;;;;3.10;2.30;;;11.00;99.90;;;8.79;100.00;98742.41;4992892;28;20419;-79
2023/01/09 00:52:07;;;;;;;5.53;1.95;;;9.80;99.90;;;8.83;100.00;98743.16;4975289;28;20059;-78
2023/01/09 00:54:36;;;;;;;3.22;1.88;;;9.80;99.90;;;8.73;100.00;98743.53;4991873;28;20046;-79
2023/01/09 00:57:03;;;;;;;2.45;2.08;;;9.80;99.90;;;8.82;100.00;98736.16;4976194;28;20076;-80
2023/01/09 00:59:31;;;;;;;3.58;2.13;;;9.80;99.90;;;8.77;100.00;98737.22;4964037;28;20046;-80
2023/01/09 01:02:01;;;;;;;2.92;2.15;;;9.80;99.90;;;8.72;100.00;98731.34;4997869;28;20102;-80
2023/01/09 01:10:01;;;;;;;2.28;1.80;;;9.80;99.90;;;8.80;100.00;98726.59;4982832;28;20081;-78
2023/01/09 01:12:28;;;;;;;2.25;1.98;;;9.80;99.90;;;8.82;100.00;98725.69;4994157;28;20434;-78
2023/01/09 01:14:55;;;;;;;2.75;2.10;;;9.80;99.90;;;8.79;100.00;98724.91;4988628;28;20053;-77
2023/01/09 01:17:22;;;;;;;2.42;2.22;;;9.70;99.90;;;8.80;100.00;98723.97;4955560;28;20065;-76
2023/01/09 01:19:49;;;;;;;2.42;2.20;;;9.80;99.90;;;8.78;100.00;98725.81;4975527;28;20050;-77
2023/01/09 01:22:16;;;;;;;2.28;1.48;;;9.80;99.90;;;8.80;100.00;98723.97;4994046;28;20553;-77
2023/01/09 01:24:43;;;;;;;1.70;1.60;;;10.60;99.90;;;8.84;100.00;98729.13;4988297;28;20077;-76
2023/01/09 01:27:11;;;;;;;1.70;1.48;;;10.90;99.90;;;8.79;100.00;98724.91;4981021;28;20049;-78
2023/01/09 01:29:38;;;;;;;1.73;1.50;;;9.80;99.90;;;8.86;100.00;98737.75;4969093;28;20052;-77
2023/01/09 01:32:05;;;;;;;2.58;1.40;;;9.70;99.90;;;8.84;100.00;98740.44;4956567;28;20058;-77
2023/01/09 01:34:33;;;;;;;1.30;1.20;;;10.10;99.90;;;8.88;100.00;98749.03;4971204;28;20670;-77
2023/01/09 01:37:00;;;;;;;2.60;2.30;;;9.80;99.90;;;8.92;100.00;98747.97;4991846;28;20050;-77
2023/01/09 01:39:27;;;;;;;1.25;1.15;;;9.80;99.90;;;8.92;100.00;98743.59;4985519;28;20050;-77
2023/01/09 01:41:55;;;;;;;1.30;1.20;;;9.80;99.90;;;8.92;100.00;98753.22;4982329;28;20657;-77
2023/01/09 01:45:11;;;;;;;1.40;1.30;;;9.80;99.90;;;8.96;100.00;98754.78;4973185;28;20074;-78
2023/01/09 01:48:07;;;;;;;1.60;1.30;;;9.80;99.90;;;8.90;100.00;98755.94;4973403;28;20047;-78
2023/01/09 01:50:47;;;;;;;1.15;1.08;;;9.80;99.90;;;8.81;100.00;98753.69;4957466;28;20042;-78
2023/01/09 01:53:19;;;;;;;1.00;1.00;;;9.80;99.90;;;8.81;100.00;98756.31;4980855;28;20145;-78
2023/01/09 01:56:13;;;;;;;3.80;1.05;;;9.80;99.90;;;8.75;100.00;98761.84;4986699;28;20046;-78
2023/01/09 01:59:04;;;;;;;1.58;1.33;;;9.70;99.90;;;8.77;100.00;98758.22;4972316;28;20097;-77
2023/01/09 02:01:33;;;;;;;1.08;1.02;;;9.70;99.90;;;8.74;100.00;98758.34;4972955;28;20046;-78
2023/01/09 02:04:01;;;;;;;1.30;1.20;;;9.70;99.90;;;8.71;100.00;98761.09;4987281;28;20495;-78
2023/01/09 02:06:29;;;;;;;1.40;1.30;;;9.70;99.90;;;8.83;100.00;98767.59;4971978;28;20042;-78
2023/01/09 02:08:57;;;;;;;1.55;1.05;;;9.70;99.90;;;8.82;100.00;98754.53;4990845;28;20046;-77
2023/01/09 02:11:24;;;;;;;1.17;1.00;;;9.70;99.90;;;8.87;100.00;98755.22;4976241;28;20050;-78
2023/01/09 02:13:51;;;;;;;1.00;1.00;;;9.70;99.90;;;8.85;100.00;98750.00;4974932;28;20053;-78
2023/01/09 02:16:32;;;;;;;1.20;0.90;;;9.80;99.90;;;8.90;100.00;98741.94;4958243;28;20105;-77
2023/01/09 02:19:24;;;;;;;;;;;9.70;99.90;;;8.90;100.00;98744.56;4972869;28;20062;-78
2023/01/09 02:22:26;;;;;;;1.30;1.20;;;9.80;99.90;;;8.90;100.00;98726.22;4975654;28;19933;-78
2023/01/09 02:25:28;;;;;;;0.90;0.90;;;9.80;99.90;;;8.84;100.00;98721.25;4960584;28;20050;-78
2023/01/09 02:28:23;;;;;;;2.10;1.30;;;9.80;99.90;;;8.89;100.00;98740.25;4942712;28;20223;-78
2023/01/09 02:31:26;;;;;;;1.83;1.13;;;9.80;99.90;;;8.88;100.00;98751.66;4958087;28;20054;-79
2023/01/09 02:34:24;;;;;;;2.72;1.17;;;9.80;99.90;;;8.91;100.00;98760.25;4974770;28;20137;-78
2023/01/09 02:37:03;;;;;;;1.30;1.20;;;10.00;99.90;;;8.85;100.00;98760.50;4932067;28;20082;-79
2023/01/09 02:39:42;;;;;;;1.33;1.23;;;9.80;99.90;;;8.84;100.00;98758.81;4961061;28;20073;-79
2023/01/09 02:42:26;;;;;;;1.45;1.35;;;9.70;99.90;;;8.78;100.00;98762.53;4961868;28;20118;-79
2023/01/09 02:44:53;;;;;;;1.90;1.08;;;10.10;99.90;;;8.77;100.00;98752.13;4943119;28;20057;-79
2023/01/09 02:47:20;;;;;;;1.10;1.00;;;9.70;99.90;;;8.73;100.00;98753.16;4942978;28;20051;-79
2023/01/09 02:49:55;;;;;;;1.42;1.33;;;9.60;99.90;;;8.70;100.00;98750.66;4958578;28;20059;-78
2023/01/09 02:52:32;;;;;;;3.22;1.60;;;9.70;99.90;;;8.74;100.00;98758.34;4959112;28;20058;-79
2023/01/09 02:55:44;;;;;;;1.48;1.30;;;9.60;99.90;;;8.74;100.00;98775.84;4958695;28;20050;-80
2023/01/09 02:59:07;;;;;;;2.40;1.88;;;9.70;99.90;;;8.65;100.00;98775.31;4960570;28;20573;-79
2023/01/09 03:02:01;;;;;;;1.75;1.48;;;9.60;99.90;;;8.66;100.00;98789.25;4869321;29;20133;-79
2023/01/09 03:04:51;;;;;;;1.75;1.33;;;9.60;99.90;;;8.59;100.00;98796.56;4889956;29;20056;-78
2023/01/09 03:08:03;;;;;;;2.88;1.45;;;9.80;99.90;;;8.65;100.00;98811.16;4976528;28;20050;-79
2023/01/09 03:11:06;;;;;;;1.70;1.60;;;9.50;99.90;;;8.67;100.00;98819.84;4984543;28;20057;-79
2023/01/09 03:13:55;;;;;;;1.98;1.33;;;9.60;99.90;;;8.65;100.00;98819.88;4961466;28;20043;-79
2023/01/09 03:16:35;;;;;;;3.15;1.33;;;9.70;99.90;;;8.59;100.00;98833.25;4982045;28;20525;-79
2023/01/09 03:19:10;;;;;;;1.70;1.60;;;9.50;99.90;;;8.53;100.00;98840.53;4976907;28;20063;-79
2023/01/09 03:21:38;;;;;;;2.13;1.45;;;10.70;99.90;;;8.37;100.00;98854.19;4971321;28;20075;-79
2023/01/09 03:24:05;;;;;;;2.90;1.25;;;9.30;99.90;;;8.19;100.00;98855.75;4971046;28;20050;-79
2023/01/09 03:26:33;;;;;;;2.22;1.52;;;9.20;99.90;;;8.06;100.00;98856.22;4972345;28;20455;-78
2023/01/09 03:29:01;;;;;;;1.50;1.40;;;9.00;99.90;;;7.93;100.00;98853.22;4974983;28;20057;-78
2023/01/09 03:31:28;;;;;;;1.65;1.13;;;8.90;99.90;;;7.78;100.00;98865.09;4971390;28;20057;-79
2023/01/09 03:33:55;;;;;;;1.23;1.13;;;9.30;99.90;;;7.66;100.00;98871.66;4971761;28;20046;-79
2023/01/09 03:36:24;;;;;;;1.15;1.00;;;8.70;99.90;;;7.65;100.00;98871.72;4956776;28;20142;-79
2023/01/09 03:38:51;;;;;;;1.92;1.25;;;8.60;99.90;;;7.59;100.00;98872.78;4956925;28;20062;-77
2023/01/09 03:41:18;;;;;;;1.30;1.10;;;8.50;99.90;;;7.57;100.00;98871.13;4972446;28;20074;-78
2023/01/09 03:43:47;;;;;;;1.52;1.42;;;8.40;99.90;;;7.63;100.00;98883.97;4976260;28;20031;-79
2023/01/09 03:46:15;;;;;;;1.30;1.20;;;8.40;99.90;;;7.64;100.00;98885.69;5002789;28;20598;-79
2023/01/09 03:48:43;;;;;;;1.08;1.08;;;8.40;99.90;;;7.61;100.00;98873.59;4976685;28;20038;-79
2023/01/09 03:51:10;;;;;;;1.63;1.38;;;8.40;99.90;;;7.57;100.00;98895.56;4991629;28;20046;-79
2023/01/09 03:53:38;;;;;;;3.00;1.75;;;8.40;99.90;;;7.52;100.00;98903.56;4975576;28;20046;-79
2023/01/09 03:56:06;;;;;;;1.25;1.00;;;8.30;99.90;;;7.50;100.00;98925.44;4975474;28;20043;-79
2023/01/09 03:58:33;;;;;;;1.52;1.20;;;8.30;99.90;;;7.58;100.00;98925.19;4992818;28;20052;-80
2023/01/09 04:01:03;;;;;;;1.05;0.95;;;9.00;99.90;;;7.57;100.00;98924.34;4975914;28;20124;-78
2023/01/09 04:03:32;;;;;;;2.50;1.27;;;9.40;99.90;;;7.57;100.00;98933.94;4959823;28;20549;-79
2023/01/09 04:05:59;;;;;;;1.20;1.10;;;8.30;99.90;;;7.54;100.00;98947.97;4975370;28;20046;-79
2023/01/09 04:08:28;;;;;;;1.55;1.05;;;8.30;99.90;;;7.46;100.00;98950.03;4975641;28;20057;-81
2023/01/09 04:10:55;;;;;;;1.52;1.20;;;8.30;99.90;;;7.43;100.00;98960.59;4975687;28;20661;-80
2023/01/09 04:13:22;;;;;;;1.20;1.13;;;8.30;99.90;;;7.41;100.00;98973.72;4974816;28;20046;-80
2023/01/09 04:15:49;;;;;;;1.10;1.00;;;8.30;99.90;;;7.39;100.00;98980.78;4969887;28;20135;-79
2023/01/09 04:18:16;;;;;;;2.53;1.10;;;8.30;99.90;;;7.42;100.00;98979.81;4954680;28;20067;-80
2023/01/09 04:20:47;;;;;;;1.05;0.95;;;8.30;99.90;;;7.45;100.00;98990.19;4970369;28;20613;-79
2023/01/09 04:23:15;;;;;;;1.02;1.00;;;8.20;99.90;;;7.38;100.00;98985.13;4954728;28;20263;-79
2023/01/09 04:25:42;;;;;;;1.10;1.00;;;9.30;99.90;;;7.41;100.00;99014.72;4940121;28;20061;-79
2023/01/09 04:28:09;;;;;;;1.20;1.10;;;8.30;99.90;;;7.38;100.00;99013.09;4923964;28;20077;-79
2023/01/09 04:30:36;;;;;;;1.50;0.98;;;8.30;99.90;;;7.34;100.00;99003.63;4939417;28;20054;-80
2023/01/09 04:33:04;;;;;;;2.42;1.17;;;8.30;99.90;;;7.42;100.00;99014.69;4939700;28;20054;-79
2023/01/09 04:35:31;;;;;;;1.75;1.20;;;8.30;99.90;;;7.37;100.00;99020.06;4923575;28;20217;-80
2023/01/09 04:37:59;;;;;;;0.85;0.85;;;8.30;99.90;;;7.33;100.00;99020.22;4958313;28;20065;-79
2023/01/09 04:40:26;;;;;;;3.78;1.08;;;8.30;99.90;;;7.35;100.00;99028.88;4974493;28;20927;-80
2023/01/09 04:42:55;;;;;;;1.02;0.70;;;8.30;99.90;;;7.31;100.00;99046.44;4974153;28;20042;-80
2023/01/09 04:45:22;;;;;;;1.88;0.85;;;8.30;99.90;;;7.32;100.00;99052.50;4973737;28;20485;-79
2023/01/09 04:47:49;;;;;;;0.80;0.80;;;8.20;99.90;;;7.30;100.00;99059.56;4957105;28;20050;-81
2023/01/09 04:50:17;;;;;;;3.25;1.27;;;8.20;99.90;;;7.20;100.00;99067.72;4960050;28;20145;-79
2023/01/09 04:52:44;;;;;;;1.52;1.00;;;8.20;99.90;;;7.17;100.00;99074.78;4991329;28;20112;-80
2023/01/09 04:55:12;;;;;;;1.65;1.08;;;8.20;99.90;;;7.22;100.00;99084.22;4975421;28;20126;-80
2023/01/09 04:57:39;;;;;;;3.15;1.20;;;8.10;99.90;;;7.21;100.00;99082.50;4975996;28;20050;-80
2023/01/09 05:00:11;;;;;;;0.73;0.73;;;8.20;99.90;;;7.20;100.00;99080.78;4959870;28;20042;-81
2023/01/09 05:02:41;;;;;;;2.35;1.52;;;8.10;99.90;;;7.20;100.00;99090.38;4991712;28;20081;-80
2023/01/09 05:05:10;;;;;;;1.33;0.90;;;8.20;99.90;;;7.14;100.00;99091.44;4944741;28;20120;-80
2023/01/09 05:07:38;;;;;;;1.05;0.95;;;9.20;99.90;;;7.08;100.00;99089.00;4978086;28;20042;-80
2023/01/09 05:10:06;;;;;;;4.88;1.00;;;8.10;99.90;;;7.15;100.00;99095.75;4993170;28;20420;-80
2023/01/09 05:12:35;;;;;;;1.33;0.90;;;8.10;99.90;;;7.13;100.00;99094.94;4978759;28;20053;-79
2023/01/09 05:15:03;;;;;;;1.20;1.10;;;8.10;99.90;;;7.11;100.00;99111.63;4966177;28;20057;-80
2023/01/09 05:17:31;;;;;;;0.95;0.90;;;8.10;99.90;;;7.07;100.00;99110.84;4976005;28;20531;-79
2023/01/09 05:19:59;;;;;;;1.02;0.90;;;8.10;99.90;;;7.03;100.00;99117.06;4971681;28;20459;-80
2023/01/09 05:22:27;;;;;;;1.17;1.10;;;9.00;99.90;;;6.98;100.00;99108.47;4973567;28;20050;-80
2023/01/09 05:24:55;;;;;;;1.45;1.25;;;8.00;99.90;;;6.92;100.00;99120.84;4985767;28;20047;-79
2023/01/09 05:27:22;;;;;;;1.20;1.10;;;8.00;99.90;;;6.86;100.00;99109.72;4955800;28;20420;-78
2023/01/09 05:29:49;;;;;;;1.52;1.10;;;8.00;99.90;;;6.86;100.00;99122.78;4955199;28;20054;-78
2023/01/09 05:32:17;;;;;;;4.32;1.60;;;9.50;99.90;;;6.81;100.00;99115.06;4972497;28;20408;-81
2023/01/09 05:34:45;;;;;;;1.23;1.00;;;7.90;99.90;;;6.78;100.00;99126.44;4972566;28;20043;-81
2023/01/09 05:37:12;;;;;;;3.45;2.63;;;7.80;99.90;;;6.81;100.00;99118.53;4975222;28;20042;-78
2023/01/09 05:39:39;;;;;;;1.45;1.30;;;7.70;99.90;;;6.72;100.00;99131.03;4952943;28;20050;-79
2023/01/09 05:42:06;;;;;;;1.73;1.30;;;7.70;99.90;;;6.74;100.00;99135.28;4976430;28;20042;-80
2023/01/09 05:44:33;;;;;;;1.63;1.52;;;7.70;99.90;;;6.70;100.00;99138.91;4964016;28;20050;-79
2023/01/09 05:47:00;;;;;;;2.75;1.20;;;7.70;99.90;;;6.68;100.00;99138.09;4992294;28;20042;-79
2023/01/09 05:49:29;;;;;;;1.95;1.50;;;7.70;99.90;;;6.66;100.00;99163.41;4974095;28;20043;-79
2023/01/09 05:51:58;;;;;;;2.90;1.30;;;9.10;99.90;;;6.69;100.00;99152.00;4971587;28;20785;-79
2023/01/09 05:54:27;;;;;;;2.65;1.70;;;8.40;99.90;;;6.73;100.00;99159.72;4989670;28;20422;-79
2023/01/09 05:56:54;;;;;;;4.65;3.22;;;8.60;99.90;;;6.78;100.00;99177.91;4985795;28;20050;-79
2023/01/09 05:59:22;;;;;;;4.07;2.25;;;8.90;99.90;;;6.80;100.00;99169.13;4990847;28;20130;-80
2023/01/09 06:01:49;;;;;;;10.32;9.38;;;9.00;99.90;;;6.80;100.00;99176.97;4975936;28;20061;-79
2023/01/09 06:04:18;;;;;;;1.98;1.70;;;7.80;99.90;;;6.79;100.00;99184.84;4987185;28;20054;-79
2023/01/09 06:06:45;;;;;;;2.03;1.70;;;9.10;99.90;;;6.74;100.00;99187.56;4949514;28;20628;-79
2023/01/09 06:09:12;;;;;;;3.08;1.70;;;7.80;99.90;;;6.84;100.00;99182.94;4968014;28;20042;-79
2023/01/09 06:11:39;;;;;;;5.65;1.98;;;7.80;99.90;;;6.75;100.00;99185.84;4974252;28;20043;-79
2023/01/09 06:14:06;;;;;;;7.82;3.08;;;7.70;99.90;;;6.81;100.00;99188.28;4978431;28;20727;-80
2023/01/09 06:16:34;;;;;;;3.85;2.33;;;9.20;99.90;;;6.83;100.00;99180.41;4996161;28;20404;-79
2023/01/09 06:19:01;;;;;;;3.70;1.85;;;7.80;99.90;;;6.84;100.00;99189.94;4994848;28;20050;-78
2023/01/09 06:21:29;;;;;;;5.63;2.22;;;7.80;99.90;;;6.77;100.00;99200.56;4976834;28;20534;-79
2023/01/09 06:23:57;;;;;;;3.50;3.17;;;7.80;99.90;;;6.80;100.00;99183.94;4970320;28;20450;-79
2023/01/09 06:26:25;;;;;;;3.15;1.67;;;9.00;99.90;;;6.83;100.00;99191.69;4994111;28;20065;-79
2023/01/09 06:28:54;;;;;;;9.10;3.53;;;9.00;99.90;;;6.85;100.00;99195.13;4974663;28;20503;-79
2023/01/09 06:31:23;;;;;;;4.40;3.22;;;7.80;99.90;;;6.83;100.00;99183.84;4953634;28;20054;-79
2023/01/09 06:33:51;;;;;;;3.65;1.65;;;7.80;99.90;;;6.84;100.00;99190.78;4957878;28;20050;-79
2023/01/09 06:36:18;;;;;;;5.45;2.22;;;8.60;99.90;;;6.82;100.00;99192.59;4984671;28;20048;-77
2023/01/09 06:38:48;;;;;;;;;;;8.60;99.90;;;6.89;100.00;99198.50;4973359;28;20129;-76
2023/01/09 06:41:16;;;;;;;3.50;2.35;;;7.90;99.90;;;6.85;100.00;99202.13;4982825;28;19950;-72
2023/01/09 06:43:43;;;;;;;3.63;1.52;;;7.90;99.90;;;6.90;100.00;99193.25;4969928;28;20376;-73
2023/01/09 06:46:10;;;;;;;5.05;1.45;;;7.90;99.90;;;6.91;100.00;99192.34;4955010;28;20098;-74
2023/01/09 06:48:37;;;;;;;2.95;1.42;;;7.90;99.90;;;6.93;100.00;99193.16;4982628;28;20117;-77
2023/01/09 06:51:05;;;;;;;6.40;2.85;;;7.90;99.90;;;6.90;100.00;99202.84;4987271;28;20438;-76
2023/01/09 06:53:33;;;;;;;2.83;1.40;;;8.20;99.90;;;6.94;100.00;99196.63;4988250;28;20050;-77
2023/01/09 06:56:01;;;;;;;3.83;1.65;;;7.90;99.90;;;6.91;100.00;99194.09;4984322;28;20060;-77
2023/01/09 06:58:28;;;;;;;7.18;3.85;;;7.90;99.90;;;6.90;100.00;99202.84;4969015;28;20117;-76
2023/01/09 07:00:58;;;;;;;5.32;1.77;;;7.90;99.90;;;6.88;100.00;99200.28;4968670;28;20042;-76
2023/01/09 07:03:25;;;;;;;3.33;2.72;;;7.90;99.90;;;6.92;100.00;99193.19;4985905;28;20057;-76
2023/01/09 07:05:52;;;;;;;6.40;1.63;;;7.90;99.90;;;6.83;100.00;99193.47;4972712;28;20034;-75
2023/01/09 07:08:20;;;;;;;3.83;1.65;;;7.90;99.90;;;6.83;100.00;99209.16;4970450;28;20046;-75
2023/01/09 07:10:47;;;;;;;7.53;1.70;;;7.80;99.90;;;6.78;100.00;99197.03;4969516;28;20050;-73
2023/01/09 07:13:14;;;;;;;2.33;1.50;;;7.90;99.90;;;6.71;100.00;99195.50;4972648;28;20732;-74
2023/01/09 07:15:41;;;;;;;3.03;1.80;;;7.80;99.90;;;6.67;100.00;99196.50;4969508;28;20097;-73
2023/01/09 07:18:08;;;;;;;5.72;1.88;;;8.10;99.90;;;6.56;100.00;99201.13;4984537;28;20113;-74
2023/01/09 07:20:39;;;;;;;6.85;2.28;;;7.60;99.90;;;6.53;100.00;99199.47;4972726;28;20046;-75
2023/01/09 07:23:11;;;;;;;5.95;1.80;;;8.10;99.90;;;6.53;100.00;99194.22;4953488;28;20061;-74
2023/01/09 07:25:41;;;;;;;4.88;1.83;;;8.00;99.90;;;6.43;100.00;99201.47;4973513;28;20392;-76
2023/01/09 07:28:08;;;;;;;2.75;1.60;;;7.60;99.90;;;6.39;100.00;99198.06;4974079;28;20046;-76
2023/01/09 07:30:35;;;;;;;5.68;1.65;;;7.50;99.90;;;6.39;100.00;99198.06;4957895;28;20058;-75
2023/01/09 07:33:03;;;;;;;7.90;2.17;;;7.50;99.90;;;6.47;100.00;99207.47;4981406;28;20391;-73
2023/01/09 07:35:31;;;;;;;5.22;1.95;;;7.50;99.90;;;6.42;100.00;99215.41;4998955;28;20056;-75
2023/01/09 07:37:58;;;;;;;3.60;1.83;;;9.00;99.90;;;6.45;100.00;99207.50;4991362;28;20133;-76
2023/01/09 07:40:25;;;;;;;2.95;1.65;;;8.00;99.90;;;6.39;100.00;99202.44;4989371;28;20064;-74
2023/01/09 07:42:53;;;;;;;5.22;1.75;;;7.40;99.90;;;6.46;100.00;99209.22;4972661;28;20101;-72
2023/01/09 07:45:21;;;;;;;4.75;1.85;;;8.20;99.90;;;6.54;100.00;99229.91;4955673;28;20105;-74
2023/01/09 07:47:48;;;;;;;7.30;2.22;;;7.50;99.90;;;6.48;100.00;99217.91;4938625;28;20050;-75
2023/01/09 07:50:15;;;;;;;4.03;1.60;;;7.50;99.90;;;6.46;100.00;99227.50;4969596;28;20418;-75
2023/01/09 07:52:45;;;;;;;4.95;1.90;;;7.50;99.90;;;6.53;100.00;99228.19;4986806;28;20046;-73
2023/01/09 07:55:12;;;;;;;11.55;1.80;;;7.50;99.90;;;6.53;100.00;99223.84;4989650;28;20058;-74
2023/01/09 07:57:49;;;;;;;5.90;2.22;;;7.50;99.90;;;6.58;100.00;99235.94;4971271;28;20080;-73
2023/01/09 08:00:22;;;;;;;8.82;2.45;;;7.50;99.90;;;6.67;100.00;99228.69;5006266;28;20062;-75
2023/01/09 08:02:53;;;;;;;4.85;1.88;;;7.60;99.90;;;6.72;100.00;99235.59;4958294;28;20514;-77
2023/01/09 08:05:23;;;;;;;7.50;2.60;;;7.70;99.90;;;6.72;100.00;99225.13;4973210;28;20096;-74
2023/01/09 08:07:50;;;;;;;9.52;2.20;;;7.60;99.90;;;6.75;100.00;99232.88;4989939;28;20485;-74
2023/01/09 08:10:19;;;;;;;5.18;2.05;;;7.70;99.90;;;6.76;100.00;99225.00;4990844;28;20398;-76
2023/01/09 08:12:48;;;;;;;3.55;1.63;;;7.70;99.90;;;6.80;100.00;99228.38;4957980;28;20640;-77
2023/01/09 08:15:18;;;;;;;7.22;1.95;;;7.80;99.90;;;6.79;100.00;99218.81;4973515;28;20497;-75
2023/01/09 08:17:46;;;;;;;5.13;2.28;;;7.80;99.90;;;6.79;100.00;99231.91;4973368;28;20691;-76
2023/01/09 08:20:15;;;;;;;7.43;1.92;;;7.70;99.90;;;6.85;100.00;99213.41;4989780;28;20054;-77
2023/01/09 08:22:49;;;;;;;3.70;1.67;;;7.80;99.90;;;6.90;100.00;99213.31;4953080;28;20510;-77
2023/01/09 08:25:17;;;;;;;7.47;2.28;;;7.80;99.90;;;6.92;100.00;99214.13;4985554;28;20054;-76
2023/01/09 08:27:44;;;;;;;6.45;1.73;;;7.90;99.90;;;6.93;100.00;99219.31;4971621;28;20157;-75
2023/01/09 08:30:12;;;;;;;12.13;7.35;;;7.90;99.90;;;6.94;100.00;99221.03;4971754;28;20072;-74
2023/01/09 08:32:40;;;;;;;4.70;1.80;;;7.90;99.90;;;6.98;100.00;99218.31;4972034;28;20054;-74
2023/01/09 08:35:08;;;;;;;4.95;1.70;;;7.80;99.90;;;7.02;100.00;99218.19;4952616;28;20051;-74
2023/01/09 08:37:42;;;;;;;3.35;1.63;;;7.90;99.90;;;7.10;100.00;99220.59;4952168;28;20061;-73
2023/01/09 08:40:11;;;;;;;5.72;2.35;;;8.90;99.90;;;7.13;100.00;99225.75;4952409;28;20065;-74
2023/01/09 08:48:13;;;;;;;3.78;1.48;;;8.10;99.90;;;7.15;100.00;99230.94;4954750;28;20841;-79
2023/01/09 08:50:40;;;;;;;4.30;2.15;;;8.10;99.70;;;7.14;100.00;99234.47;4952618;28;20154;-74
2023/01/09 08:53:08;;;;;;;8.07;3.60;;;8.10;99.90;;;7.18;100.00;99236.06;4969350;28;20047;-74
2023/01/09 08:55:35;;;;;;;5.22;1.58;;;8.10;99.90;;;7.19;100.00;99238.66;4953647;28;20110;-72
2023/01/09 08:58:02;;;;;;;5.57;1.75;;;8.20;99.80;;;7.21;100.00;99246.44;4970928;28;20442;-73
2023/01/09 09:00:32;;;;;;;7.38;2.20;;;8.20;99.70;;;7.21;100.00;99260.41;4971104;28;20050;-73
2023/01/09 09:03:01;;;;;;;3.55;1.50;;;8.20;99.50;;;7.23;100.00;99257.72;4972572;28;20511;-72
2023/01/09 09:05:30;;;;;;;6.50;1.50;;;8.20;99.80;;;7.21;100.00;99268.25;4976004;28;20038;-75
2023/01/09 09:07:58;;;;;;;3.50;1.63;;;8.30;99.90;;;7.24;100.00;99259.44;4987182;28;20058;-75
2023/01/09 09:10:27;;;;;;;2.55;1.65;;;8.20;99.60;;;7.29;100.00;99257.56;4971622;28;20054;-75
2023/01/09 09:12:57;;;;;;;2.50;2.03;;;8.20;99.80;;;7.28;100.00;99250.63;4987136;28;20054;-75
2023/01/09 09:15:28;;;;;;;6.60;2.17;;;8.30;99.90;;;7.32;100.00;99254.88;4970642;28;20116;-75
2023/01/09 09:17:59;;;;;;;4.35;1.83;;;8.30;99.90;;;7.37;100.00;99263.44;4955149;28;20062;-75
2023/01/09 09:20:35;;;;;;;3.72;1.90;;;8.30;99.50;;;7.46;100.00;99267.53;4971145;28;20505;-71
2023/01/09 09:23:04;;;;;;;4.32;2.15;;;8.40;99.70;;;7.50;100.00;99260.47;4978718;28;20408;-72
2023/01/09 09:25:31;;;;;;;5.03;2.17;;;8.40;99.80;;;7.54;100.00;99242.91;4980408;28;20061;-70
2023/01/09 09:27:59;;;;;;;4.95;1.80;;;8.40;99.60;;;7.78;100.00;99270.13;4987913;28;20129;-73
2023/01/09 09:30:27;;;;;;;4.47;1.75;;;8.90;99.90;;;7.73;100.00;99261.56;4967987;28;20057;-70
2023/01/09 09:32:55;;;;;;;3.47;1.63;;;8.70;99.40;;;7.68;100.00;99256.47;4966790;28;20057;-70
2023/01/09 09:35:22;;;;;;;5.18;1.70;;;8.70;99.40;;;7.68;100.00;99263.44;4945358;28;20046;-70
2023/01/09 09:37:59;;;;;;;4.13;2.88;;;8.60;99.40;;;7.69;100.00;99254.69;4970095;28;20050;-72
2023/01/09 09:40:49;;;;;;;2.47;1.88;;;8.60;99.40;;;7.70;100.00;99261.63;4970256;28;20076;-70
2023/01/09 09:46:24;;;;;;;2.88;1.48;;;8.60;99.10;;;7.72;100.00;99260.69;4988202;28;20044;-70
2023/01/09 09:48:58;;;;;;;4.50;1.50;;;8.70;99.30;;;7.75;100.00;99265.00;4989258;28;20074;-70
2023/01/09 09:51:32;;;;;;;3.85;1.90;;;8.70;99.50;;;7.82;100.00;99269.13;4986325;28;20062;-70
2023/01/09 09:54:19;;;;;;;3.92;2.05;;;8.70;99.60;;;7.79;100.00;99270.06;4986486;28;20054;-71
2023/01/09 09:56:57;;;;;;;2.72;1.45;;;8.70;99.50;;;7.84;100.00;99269.94;4969609;28;20042;-70
2023/01/09 09:59:31;;;;;;;4.20;1.63;;;8.80;99.50;;;7.83;100.00;99273.44;4950302;28;20050;-69
2023/01/09 10:02:22;;;;;;;7.47;2.13;;;8.80;99.40;;;7.81;100.00;99280.50;4986222;28;20039;-70
2023/01/09 10:05:33;;;;;;;6.97;1.77;;;8.80;99.10;;;7.86;100.00;99278.59;4986148;28;20117;-71
2023/01/09 10:08:42;;;;;;;5.93;1.58;;;8.80;99.00;;;7.85;100.00;99281.28;4967441;28;20058;-70
2023/01/09 10:12:12;;;;;;;3.10;1.98;;;8.80;99.10;;;7.92;100.00;99280.16;4960333;28;20062;-72
2023/01/09 10:14:39;;;;;;;6.23;2.73;;;8.90;99.30;;;7.91;100.00;99281.06;4974786;28;20589;-71
2023/01/09 10:17:28;;;;;;;5.47;2.25;;;8.90;99.20;;;7.91;100.00;99287.19;4966315;28;20050;-71
2023/01/09 10:20:26;;;;;;;2.50;1.58;;;8.90;99.00;;;7.93;100.00;99298.47;4984496;28;20407;-71
2023/01/09 10:23:21;;;;;;;3.28;1.75;;;8.90;98.80;;;7.95;100.00;99286.19;4979386;28;20049;-71
2023/01/09 10:26:00;;;;;;;3.75;1.60;;;8.90;98.80;;;8.00;100.00;99286.03;4955967;28;20851;-71
2023/01/09 10:29:31;;;;;;;9.37;2.60;;;8.90;99.00;;;8.03;100.00;99282.44;4972481;28;20446;-71
2023/01/09 10:32:13;;;;;;;5.43;2.00;;;9.00;98.90;;;8.04;100.00;99279.81;4972678;28;20047;-71
2023/01/09 10:34:56;;;;;;;4.25;1.75;;;9.00;98.80;;;8.03;100.00;99278.09;4989885;28;20101;-70
2023/01/09 10:37:45;;;;;;;4.93;1.90;;;9.00;98.90;;;8.03;100.00;99275.47;4991468;28;20073;-69
2023/01/09 10:40:25;;;;;;;6.65;2.38;;;9.00;98.80;;;8.08;100.00;99272.72;4973833;28;20061;-70
2023/01/09 10:43:03;;;;;;;7.57;2.20;;;9.00;99.00;;;8.16;100.00;99272.47;4989391;28;20057;-72
2023/01/09 10:45:41;;;;;;;5.03;2.30;;;9.10;99.00;;;8.18;100.00;99270.66;4952339;28;20051;-70
2023/01/09 10:48:31;;;;;;;6.45;2.45;;;9.10;98.80;;;8.23;100.00;99272.22;4968821;28;20145;-71
2023/01/09 10:50:58;;;;;;;3.95;1.90;;;9.20;99.30;;;8.27;100.00;99269.50;4952517;28;20053;-70
2023/01/09 10:53:39;;;;;;;3.22;1.70;;;9.20;99.30;;;8.17;100.00;99267.16;4968313;28;20145;-70
2023/01/09 10:56:35;;;;;;;4.45;2.58;;;9.20;99.20;;;8.10;100.00;99270.91;4933056;29;20066;-70
2023/01/09 10:59:08;;;;;;;4.50;3.10;;;9.10;99.80;;;8.01;100.00;99281.66;4947225;28;20055;-70
2023/01/09 11:01:39;;;;;;;14.77;6.18;;;9.00;99.70;;;7.92;100.00;99272.31;4952980;28;20046;-71
2023/01/09 11:04:34;;;;;;;5.32;3.03;;;8.90;99.90;;;7.84;100.00;99267.31;4937121;28;20542;-71